Time;durP1;ratioP1;P1;durP2;ratioP2;P2;SDS_P1;SDS_P2;PMS_P1;PMS_P2;Temp;Humidity;BMP_temperature;BMP_pressure;BME280_temperature;BME280_humidity;BME280_pressure;Samples;Min_cycle;Max_cycle;Signal;HPM_P1;HPM_P2
2021/10/19 00:00:50;;;;;;;11.73;8.57;;;;;;;10.57;64.08;102517.34;6120541;23;20223;-66
2021/10/19 00:03:15;;;;;;;11.83;8.30;;;;;;;10.58;64.11;102511.44;6121392;23;20232;-66
2021/10/19 00:05:41;;;;;;;12.77;8.70;;;;;;;10.53;64.15;102509.00;6121882;23;20225;-66
2021/10/19 00:08:06;;;;;;;13.93;8.30;;;;;;;10.61;64.24;102512.63;6121957;23;20213;-66
2021/10/19 00:10:32;;;;;;;10.33;8.03;;;;;;;10.62;63.98;102523.34;6120340;23;20625;-66
2021/10/19 00:12:57;;;;;;;9.77;7.77;;;;;;;10.59;64.36;102509.44;6121642;23;20154;-66
2021/10/19 00:15:23;;;;;;;11.37;8.27;;;;;;;10.57;64.32;102514.56;6121852;23;20209;-66
2021/10/19 00:17:48;;;;;;;12.00;8.47;;;;;;;10.55;64.22;102517.72;6122490;23;20155;-66
2021/10/19 00:20:16;;;;;;;9.80;7.83;;;;;;;10.52;64.70;102504.66;6120161;23;20150;-66
2021/10/19 00:22:43;;;;;;;11.40;7.77;;;;;;;10.47;64.46;102502.25;6121278;23;20150;-66
2021/10/19 00:25:10;;;;;;;11.20;8.20;;;;;;;10.61;64.04;102521.72;6121483;23;20692;-66
2021/10/19 00:27:37;;;;;;;9.90;7.90;;;;;;;10.55;64.25;102511.41;6121431;23;20198;-65
2021/10/19 00:30:06;;;;;;;11.07;8.27;;;;;;;10.61;64.36;102520.94;6119750;23;20213;-66
2021/10/19 00:32:31;;;;;;;10.00;7.90;;;;;;;10.27;63.85;102455.78;6121455;23;20165;-66
2021/10/19 00:34:57;;;;;;;12.27;8.70;;;;;;;10.53;63.62;102503.47;6121451;23;20526;-66
2021/10/19 00:37:22;;;;;;;11.93;8.17;;;;;;;10.61;64.15;102518.19;6121228;23;20182;-66
2021/10/19 00:39:48;;;;;;;12.23;7.90;;;;;;;10.62;63.91;102517.78;6120768;23;20158;-66
2021/10/19 00:42:13;;;;;;;10.30;7.90;;;;;;;10.43;64.02;102498.66;6118428;23;20510;-66
2021/10/19 00:44:39;;;;;;;11.70;8.63;;;;;;;10.48;63.95;102503.84;6121071;23;20272;-66
2021/10/19 00:47:05;;;;;;;11.60;8.03;;;;;;;10.51;64.40;102521.69;6121200;23;20547;-66
2021/10/19 00:49:31;;;;;;;11.13;8.47;;;;;;;10.57;64.14;102514.56;6120917;23;20161;-66
2021/10/19 00:51:57;;;;;;;12.27;7.83;;;;;;;9.86;64.90;102416.28;6119517;23;20160;-66
2021/10/19 00:54:23;;;;;;;11.83;8.23;;;;;;;10.27;64.51;102476.00;6121173;23;20157;-66
2021/10/19 00:56:53;;;;;;;13.27;8.50;;;;;;;10.47;64.00;102502.25;6120979;23;20155;-66
2021/10/19 00:59:19;;;;;;;12.77;8.60;;;;;;;10.57;63.62;102512.63;6120560;23;20160;-65
2021/10/19 01:01:45;;;;;;;10.57;8.47;;;;;;;10.35;63.91;102480.38;6119840;23;20167;-66
2021/10/19 01:04:10;;;;;;;15.00;8.33;;;;;;;10.44;64.18;102493.88;6120682;23;20589;-66
2021/10/19 01:06:36;;;;;;;12.60;7.80;;;;;;;10.58;63.75;102503.09;6120509;23;20165;-66
2021/10/19 01:09:02;;;;;;;10.60;8.30;;;;;;;10.57;63.92;102504.28;6120719;23;20150;-66
2021/10/19 01:11:28;;;;;;;11.77;8.03;;;;;;;10.58;64.03;102500.34;6118109;23;20168;-66
2021/10/19 01:13:54;;;;;;;12.33;8.73;;;;;;;10.55;64.11;102505.88;6120891;23;20511;-65
2021/10/19 01:16:19;;;;;;;11.27;8.47;;;;;;;10.52;64.11;102498.31;6119074;23;20166;-65
2021/10/19 01:18:45;;;;;;;13.23;8.40;;;;;;;10.55;63.86;102498.31;6120749;23;20340;-66
2021/10/19 01:21:11;;;;;;;12.13;8.50;;;;;;;10.20;64.13;102447.44;6119459;23;20216;-65
2021/10/19 01:23:37;;;;;;;12.83;8.50;;;;;;;10.55;63.85;102503.09;6120982;23;20505;-66
2021/10/19 01:26:06;;;;;;;10.17;8.03;;;;;;;10.57;63.92;102503.50;6119032;23;20264;-67
2021/10/19 01:28:34;;;;;;;12.33;8.17;;;;;;;10.50;64.36;102511.78;6120375;23;20231;-67
2021/10/19 01:31:00;;;;;;;12.00;8.50;;;;;;;10.41;64.29;102512.09;6119370;23;20284;-67
2021/10/19 01:33:27;;;;;;;10.53;8.93;;;;;;;10.30;64.78;102502.91;6120948;23;20228;-67
2021/10/19 01:35:53;;;;;;;11.77;8.80;;;;;;;10.27;64.90;102511.19;6120785;23;20536;-65
2021/10/19 01:38:27;;;;;;;12.17;8.23;;;;;;;9.84;66.14;102468.47;6120248;23;20229;-65
2021/10/19 01:40:54;;;;;;;11.63;9.17;;;;;;;10.10;65.88;102501.56;6119888;23;20149;-65
2021/10/19 01:43:23;;;;;;;10.23;8.20;;;;;;;10.04;65.60;102489.25;6119049;23;20699;-66
2021/10/19 01:45:55;;;;;;;12.27;8.83;;;;;;;10.20;66.37;102498.09;6120943;23;20260;-67
2021/10/19 01:48:21;;;;;;;12.33;9.00;;;;;;;10.16;65.62;102508.38;6120326;23;20203;-67
2021/10/19 01:50:47;;;;;;;10.67;8.37;;;;;;;10.10;65.83;102512.66;6117774;23;20183;-66
2021/10/19 01:53:13;;;;;;;11.23;8.63;;;;;;;9.69;65.55;102450.16;6121412;23;20155;-66
2021/10/19 01:55:40;;;;;;;11.37;8.03;;;;;;;10.06;65.93;102517.38;6119110;23;20620;-66
2021/10/19 01:58:07;;;;;;;11.87;8.03;;;;;;;9.88;65.95;102499.78;6120537;23;20180;-66
2021/10/19 02:00:34;;;;;;;12.27;8.47;;;;;;;10.00;66.15;102529.16;6119010;23;20160;-67
2021/10/19 02:03:04;;;;;;;10.97;8.60;;;;;;;9.51;66.03;102448.41;6120797;23;20165;-66
2021/10/19 02:05:29;;;;;;;13.30;8.63;;;;;;;10.02;66.15;102526.78;6122682;23;20180;-64
2021/10/19 02:07:55;;;;;;;11.67;8.63;;;;;;;9.97;66.09;102527.97;6122577;23;20160;-65
2021/10/19 02:10:20;;;;;;;10.43;9.10;;;;;;;9.94;66.10;102528.72;6120666;23;20214;-65
2021/10/19 02:12:47;;;;;;;13.67;8.43;;;;;;;9.77;66.94;102540.44;6122639;23;20187;-65
2021/10/19 02:15:12;;;;;;;10.83;8.67;;;;;;;9.75;67.62;102531.72;6122468;23;20180;-67
2021/10/19 02:17:38;;;;;;;13.77;9.30;;;;;;;9.78;67.47;102539.25;6120746;23;20155;-67
2021/10/19 02:20:05;;;;;;;15.43;9.97;;;;;;;9.75;68.00;102545.56;6120850;23;20182;-67
2021/10/19 02:22:31;;;;;;;22.80;10.03;;;;;;;9.78;67.60;102547.56;6122237;23;20680;-67
2021/10/19 02:24:58;;;;;;;15.33;9.90;;;;;;;9.82;67.52;102542.84;6122029;23;20297;-67
2021/10/19 02:27:24;;;;;;;17.27;9.67;;;;;;;9.52;67.46;102497.03;6122198;23;20205;-65
2021/10/19 02:29:50;;;;;;;17.53;9.23;;;;;;;9.81;67.59;102549.56;6122255;23;20154;-67
2021/10/19 02:32:15;;;;;;;12.50;9.00;;;;;;;9.71;67.19;102541.97;6121073;23;20205;-67
2021/10/19 02:34:41;;;;;;;14.03;9.77;;;;;;;9.61;67.55;102550.94;6122668;23;20147;-68
2021/10/19 02:37:06;;;;;;;11.47;9.20;;;;;;;9.49;67.97;102548.41;6122422;23;20179;-67
2021/10/19 02:39:33;;;;;;;14.40;9.73;;;;;;;9.53;68.10;102551.25;6119722;23;20169;-68
2021/10/19 02:41:58;;;;;;;17.63;10.10;;;;;;;9.55;67.67;102549.69;6119654;23;20317;-68
2021/10/19 02:44:23;;;;;;;25.87;10.30;;;;;;;9.44;68.22;102557.06;6122081;23;20213;-68
2021/10/19 02:46:49;;;;;;;13.30;9.67;;;;;;;9.45;67.67;102542.06;6122176;23;20485;-68
2021/10/19 02:49:15;;;;;;;18.73;10.67;;;;;;;9.55;67.80;102559.97;6122451;23;20285;-68
2021/10/19 02:51:41;;;;;;;17.63;10.43;;;;;;;9.33;68.36;102536.78;6120824;23;20166;-68
2021/10/19 02:54:06;;;;;;;15.53;9.73;;;;;;;9.32;68.59;102549.03;6122166;23;20213;-68
2021/10/19 02:56:32;;;;;;;18.13;9.93;;;;;;;9.47;68.12;102569.34;6120704;23;20155;-69
2021/10/19 02:58:57;;;;;;;12.33;9.83;;;;;;;9.53;67.79;102574.19;6121758;23;20220;-68
2021/10/19 03:01:23;;;;;;;15.13;10.00;;;;;;;9.40;67.96;102572.03;6121182;23;20154;-68
2021/10/19 03:03:48;;;;;;;13.43;9.43;;;;;;;9.15;68.30;102538.56;6122074;23;20158;-68
2021/10/19 03:06:14;;;;;;;13.13;10.00;;;;;;;9.27;68.25;102554.13;6121836;23;20605;-68
2021/10/19 03:08:39;;;;;;;18.00;9.67;;;;;;;9.40;68.34;102581.16;6121354;23;20159;-68
2021/10/19 03:11:05;;;;;;;13.87;9.47;;;;;;;9.31;68.71;102575.09;6121064;23;20150;-68
2021/10/19 03:13:30;;;;;;;13.40;10.50;;;;;;;8.94;68.15;102520.88;6121868;23;20504;-68
2021/10/19 03:15:56;;;;;;;13.23;9.47;;;;;;;9.35;69.04;102580.69;6122066;23;20148;-68
2021/10/19 03:18:22;;;;;;;14.07;10.30;;;;;;;9.27;68.82;102590.09;6119764;23;20163;-68
2021/10/19 03:20:48;;;;;;;13.47;10.20;;;;;;;8.97;69.11;102554.09;6120826;23;20169;-68
2021/10/19 03:23:13;;;;;;;14.23;9.57;;;;;;;9.12;69.31;102596.59;6121739;23;20151;-68
2021/10/19 03:25:39;;;;;;;18.00;10.20;;;;;;;8.89;69.74;102577.31;6121670;23;20210;-68
2021/10/19 03:28:04;;;;;;;13.90;10.23;;;;;;;9.04;70.18;102597.66;6121700;23;20205;-68
2021/10/19 03:30:30;;;;;;;18.03;10.20;;;;;;;9.10;69.34;102596.97;6120040;23;20650;-68
2021/10/19 03:32:56;;;;;;;14.13;9.50;;;;;;;9.04;70.19;102603.19;6121874;23;20591;-68
2021/10/19 03:35:22;;;;;;;15.27;10.20;;;;;;;8.77;70.47;102569.22;6121679;23;20151;-67
2021/10/19 03:37:47;;;;;;;19.60;10.57;;;;;;;9.00;70.81;102597.63;6121570;23;20541;-68
2021/10/19 03:40:13;;;;;;;16.23;10.47;;;;;;;9.01;70.46;102593.69;6120504;23;20549;-68
2021/10/19 03:42:41;;;;;;;17.83;11.23;;;;;;;9.07;70.21;102600.47;6122113;23;20159;-68
2021/10/19 03:45:08;;;;;;;18.13;11.50;;;;;;;9.00;69.82;102594.03;6121760;23;20183;-68
2021/10/19 03:47:34;;;;;;;23.80;12.50;;;;;;;8.95;70.45;102611.78;6121524;23;20230;-68
2021/10/19 03:49:59;;;;;;;15.87;11.57;;;;;;;8.98;70.58;102615.75;6119947;23;20656;-68
2021/10/19 03:52:25;;;;;;;22.27;11.67;;;;;;;8.82;70.28;102593.78;6119617;23;20641;-68
2021/10/19 03:54:50;;;;;;;14.13;10.43;;;;;;;8.87;70.13;102610.06;6121831;23;20247;-68
2021/10/19 03:57:16;;;;;;;16.10;11.40;;;;;;;8.88;70.68;102608.09;6121596;23;20209;-68
2021/10/19 03:59:41;;;;;;;14.77;11.13;;;;;;;9.06;70.51;102625.72;6120919;23;20155;-66
2021/10/19 04:02:07;;;;;;;16.73;10.67;;;;;;;8.72;70.00;102571.53;6118353;23;20230;-66
2021/10/19 04:04:34;;;;;;;18.93;10.70;;;;;;;8.96;70.43;102635.47;6121135;23;20519;-69
2021/10/19 04:07:00;;;;;;;18.60;10.40;;;;;;;9.00;70.09;102639.09;6121669;23;20233;-66
2021/10/19 04:09:25;;;;;;;15.17;10.30;;;;;;;8.97;70.10;102641.81;6120894;23;20608;-67
2021/10/19 04:11:51;;;;;;;15.47;9.50;;;;;;;9.01;69.83;102654.53;6118085;23;20166;-66
2021/10/19 04:14:16;;;;;;;14.03;9.57;;;;;;;8.50;69.58;102559.34;6120997;23;20649;-66
2021/10/19 04:16:42;;;;;;;14.07;9.70;;;;;;;9.01;70.03;102653.72;6121134;23;20163;-67
2021/10/19 04:19:07;;;;;;;11.77;8.97;;;;;;;9.02;69.70;102647.81;6120899;23;20344;-66
2021/10/19 04:21:33;;;;;;;12.10;8.87;;;;;;;8.88;69.38;102625.50;6120023;23;20151;-66
2021/10/19 04:23:58;;;;;;;14.00;9.43;;;;;;;9.13;69.38;102670.88;6120932;23;20561;-66
2021/10/19 04:26:24;;;;;;;13.20;8.70;;;;;;;8.83;69.33;102616.72;6120616;23;20549;-67
2021/10/19 04:28:49;;;;;;;12.97;9.13;;;;;;;9.16;68.70;102656.31;6121058;23;20165;-66
2021/10/19 04:31:15;;;;;;;14.43;9.43;;;;;;;9.23;69.11;102670.25;6119666;23;20210;-66
2021/10/19 04:33:41;;;;;;;15.67;9.73;;;;;;;9.21;69.56;102669.03;6121046;23;20200;-66
2021/10/19 04:36:06;;;;;;;13.93;8.80;;;;;;;9.30;69.26;102683.38;6120849;23;20597;-66
2021/10/19 04:38:33;;;;;;;12.30;9.13;;;;;;;9.34;69.01;102673.97;6120537;23;20150;-66
2021/10/19 04:40:59;;;;;;;18.77;9.70;;;;;;;9.36;68.81;102676.34;6118271;23;20215;-66
2021/10/19 04:43:25;;;;;;;12.40;9.10;;;;;;;9.22;68.65;102651.28;6118090;23;20150;-66
2021/10/19 04:45:53;;;;;;;15.20;8.97;;;;;;;9.56;67.92;102670.31;6120592;23;20645;-66
2021/10/19 04:48:19;;;;;;;16.13;9.37;;;;;;;9.63;67.55;102672.38;6119738;23;20256;-66
2021/10/19 04:50:45;;;;;;;11.30;8.63;;;;;;;9.18;67.42;102606.94;6119442;23;20162;-66
2021/10/19 04:53:11;;;;;;;11.93;8.53;;;;;;;9.36;67.02;102629.31;6117255;23;20150;-66
2021/10/19 04:55:36;;;;;;;13.23;10.10;;;;;;;9.30;67.16;102628.84;6119266;23;20157;-66
2021/10/19 04:58:02;;;;;;;12.97;10.00;;;;;;;9.63;66.93;102684.22;6111772;23;20169;-66
2021/10/19 05:00:27;;;;;;;12.30;9.17;;;;;;;9.32;67.00;102618.19;6104929;23;20150;-66
2021/10/19 05:02:53;;;;;;;14.90;10.43;;;;;;;9.67;67.06;102687.03;6111311;23;20649;-66
2021/10/19 05:05:19;;;;;;;13.27;9.97;;;;;;;9.47;66.81;102635.78;6118302;23;20189;-63
2021/10/19 05:07:44;;;;;;;14.43;8.93;;;;;;;9.78;66.69;102690.75;6112183;23;20163;-62
2021/10/19 05:10:10;;;;;;;11.73;9.00;;;;;;;9.70;66.51;102669.69;6112178;23;20167;-61
2021/10/19 05:12:36;;;;;;;15.30;9.17;;;;;;;9.55;66.23;102645.78;6118110;23;20623;-64
2021/10/19 05:15:03;;;;;;;11.87;9.17;;;;;;;9.85;66.47;102696.38;6115954;23;20162;-66
2021/10/19 05:17:29;;;;;;;16.07;10.87;;;;;;;9.62;66.35;102662.47;6117876;23;20508;-66
2021/10/19 05:19:54;;;;;;;17.03;10.80;;;;;;;9.86;66.67;102700.72;6111628;23;20239;-66
2021/10/19 05:22:21;;;;;;;15.50;11.17;;;;;;;9.78;66.89;102690.75;6116899;23;20161;-66
2021/10/19 05:24:46;;;;;;;21.60;12.40;;;;;;;9.60;66.87;102670.34;6117631;23;20179;-66
2021/10/19 05:27:12;;;;;;;15.87;12.37;;;;;;;9.71;67.18;102677.63;6118309;23;20511;-66
2021/10/19 05:29:37;;;;;;;19.00;12.30;;;;;;;9.99;66.74;102713.94;6119137;23;20209;-66
2021/10/19 05:32:05;;;;;;;24.70;14.10;;;;;;;9.79;66.61;102678.50;6117670;23;20207;-66
2021/10/19 05:34:31;;;;;;;22.40;12.53;;;;;;;9.95;66.96;102698.47;6118765;23;20280;-66
2021/10/19 05:36:56;;;;;;;18.70;11.67;;;;;;;10.05;67.25;102728.31;6119649;23;20190;-66
2021/10/19 05:39:21;;;;;;;20.73;11.87;;;;;;;9.82;66.12;102670.22;6121078;23;20190;-65
2021/10/19 05:41:47;;;;;;;18.53;10.97;;;;;;;10.12;65.96;102714.53;6118141;23;20570;-66
2021/10/19 05:44:12;;;;;;;16.97;11.20;;;;;;;10.06;66.63;102719.63;6120017;23;20183;-66
2021/10/19 05:46:38;;;;;;;17.37;11.50;;;;;;;10.24;66.08;102730.91;6121165;23;20166;-66
2021/10/19 05:49:04;;;;;;;18.60;11.60;;;;;;;9.84;66.32;102650.47;6120685;23;20189;-66
2021/10/19 05:51:29;;;;;;;20.97;11.73;;;;;;;10.56;65.94;102752.22;6120506;23;20218;-65
2021/10/19 05:53:55;;;;;;;17.87;11.70;;;;;;;10.65;65.73;102755.47;6120934;23;20161;-66
2021/10/19 05:56:20;;;;;;;22.60;12.77;;;;;;;10.56;65.47;102707.84;6117125;23;20600;-66
2021/10/19 05:58:46;;;;;;;16.50;10.90;;;;;;;10.92;64.60;102751.34;6120935;23;20163;-66
2021/10/19 06:01:11;;;;;;;16.10;10.90;;;;;;;11.01;64.53;102743.50;6119919;23;20168;-66
2021/10/19 06:03:37;;;;;;;19.43;10.90;;;;;;;11.13;64.82;102754.28;6120179;23;20154;-66
2021/10/19 06:06:07;;;;;;;18.47;11.50;;;;;;;11.28;64.09;102761.53;6119541;23;20162;-66
2021/10/19 06:08:33;;;;;;;17.30;10.67;;;;;;;11.31;64.53;102746.91;6120539;23;20158;-66
2021/10/19 06:10:59;;;;;;;18.20;10.20;;;;;;;11.51;63.93;102761.31;6120436;23;20165;-66
2021/10/19 06:13:25;;;;;;;13.90;9.90;;;;;;;11.66;62.75;102758.25;6119218;23;20669;-66
2021/10/19 06:15:50;;;;;;;24.33;9.90;;;;;;;11.75;63.37;102758.72;6120398;23;20521;-66
2021/10/19 06:18:16;;;;;;;11.97;8.20;;;;;;;11.85;62.41;102769.09;6119575;23;20155;-66
2021/10/19 06:20:43;;;;;;;14.23;8.80;;;;;;;11.91;62.51;102772.28;6119632;23;20154;-66
2021/10/19 06:23:09;;;;;;;14.07;8.80;;;;;;;12.05;62.50;102775.13;6118161;23;20150;-66
2021/10/19 06:25:34;;;;;;;15.57;9.47;;;;;;;12.08;62.84;102775.13;6121016;23;20212;-66
2021/10/19 06:28:00;;;;;;;14.93;8.90;;;;;;;12.10;62.59;102758.84;6119676;23;20476;-66
2021/10/19 06:30:25;;;;;;;13.93;8.60;;;;;;;12.00;62.36;102722.69;6119860;23;20225;-66
2021/10/19 06:32:50;;;;;;;15.13;9.23;;;;;;;12.32;61.53;102743.03;6120770;23;20170;-66
2021/10/19 06:35:16;;;;;;;14.53;9.30;;;;;;;12.52;61.33;102764.56;6117676;23;20256;-66
2021/10/19 06:37:42;;;;;;;13.63;9.27;;;;;;;12.50;60.69;102755.00;6119220;23;20158;-66
2021/10/19 06:40:08;;;;;;;18.10;8.87;;;;;;;12.72;61.55;102767.75;6116614;23;20193;-66
2021/10/19 06:42:34;;;;;;;21.33;9.57;;;;;;;12.88;61.37;102782.09;6119163;23;20548;-66
2021/10/19 06:45:00;;;;;;;17.43;9.10;;;;;;;13.05;60.18;102781.31;6114843;23;20497;-66
2021/10/19 06:47:29;;;;;;;11.93;8.30;;;;;;;13.06;60.62;102769.00;6120123;23;20495;-66
2021/10/19 06:49:55;;;;;;;15.73;9.00;;;;;;;13.02;59.76;102776.56;6113636;23;20158;-66
2021/10/19 06:52:20;;;;;;;14.63;8.83;;;;;;;13.18;59.41;102771.38;6106374;23;20628;-66
2021/10/19 06:54:46;;;;;;;14.13;8.73;;;;;;;13.16;58.21;102776.56;6113634;23;20596;-66
2021/10/19 06:57:12;;;;;;;14.50;9.17;;;;;;;13.15;59.07;102741.53;6116346;23;20154;-66
2021/10/19 06:59:37;;;;;;;14.40;9.07;;;;;;;13.46;58.68;102774.13;6115643;23;20502;-66
2021/10/19 07:02:04;;;;;;;18.67;9.70;;;;;;;13.36;57.96;102777.72;6118693;23;20162;-66
2021/10/19 07:04:29;;;;;;;13.43;9.90;;;;;;;13.35;58.27;102771.38;6120681;23;20157;-67
2021/10/19 07:06:55;;;;;;;18.30;10.07;;;;;;;13.52;58.27;102786.47;6120174;23;20159;-66
2021/10/19 07:09:20;;;;;;;16.17;9.97;;;;;;;13.41;58.49;102772.56;6117802;23;20439;-67
2021/10/19 07:11:46;;;;;;;17.83;9.63;;;;;;;13.23;57.86;102749.47;6119639;23;20564;-67
2021/10/19 07:14:11;;;;;;;19.23;10.40;;;;;;;13.31;58.56;102784.50;6119419;23;20802;-67
2021/10/19 07:16:37;;;;;;;17.27;10.10;;;;;;;13.27;57.85;102782.94;6119741;23;20163;-67
2021/10/19 07:19:06;;;;;;;21.30;10.30;;;;;;;13.40;57.38;102776.53;6118793;23;20223;-67
2021/10/19 07:21:32;;;;;;;16.93;9.77;;;;;;;13.54;57.34;102779.31;6116416;23;20557;-67
2021/10/19 07:23:57;;;;;;;16.13;9.40;;;;;;;13.70;56.47;102779.66;6113619;23;20163;-67
2021/10/19 07:26:23;;;;;;;17.57;10.10;;;;;;;13.90;56.80;102788.34;6119651;23;20171;-67
2021/10/19 07:28:48;;;;;;;21.43;9.87;;;;;;;13.78;56.59;102744.22;6118828;23;20153;-67
2021/10/19 07:31:14;;;;;;;18.93;10.43;;;;;;;14.26;56.13;102789.84;6118786;23;20195;-67
2021/10/19 07:33:39;;;;;;;15.10;10.13;;;;;;;14.47;55.79;102789.72;6119876;23;20161;-67
2021/10/19 07:36:05;;;;;;;20.10;10.23;;;;;;;14.61;54.69;102784.06;6120376;23;20244;-67
2021/10/19 07:38:30;;;;;;;15.40;9.53;;;;;;;14.74;54.49;102782.38;6119055;23;20185;-67
2021/10/19 07:40:56;;;;;;;12.73;9.80;;;;;;;14.89;53.45;102792.25;6119208;23;20182;-67
2021/10/19 07:43:21;;;;;;;13.57;9.63;;;;;;;14.91;53.67;102778.69;6119300;23;20345;-67
2021/10/19 07:45:47;;;;;;;13.20;9.70;;;;;;;15.00;52.26;102751.06;6119646;23;20208;-67
2021/10/19 07:48:12;;;;;;;13.57;9.13;;;;;;;15.33;51.65;102793.13;6118488;23;20224;-67
2021/10/19 07:50:38;;;;;;;13.57;9.47;;;;;;;15.26;51.77;102784.75;6117869;23;20349;-67
2021/10/19 07:53:04;;;;;;;12.40;8.50;;;;;;;14.60;52.31;102695.97;6119034;23;20173;-67
2021/10/19 07:55:33;;;;;;;12.63;8.50;;;;;;;15.42;52.17;102792.63;6119809;23;20213;-67
2021/10/19 07:57:58;;;;;;;11.97;8.30;;;;;;;15.47;52.39;102767.81;6117430;23;20241;-67
2021/10/19 08:00:26;;;;;;;15.43;9.43;;;;;;;15.80;51.27;102800.63;6100493;23;20181;-67
2021/10/19 08:02:53;;;;;;;13.33;9.27;;;;;;;15.61;51.70;102750.09;6115088;23;20158;-67
2021/10/19 08:05:19;;;;;;;13.00;8.43;;;;;;;15.71;51.26;102747.19;6118045;23;20230;-67
2021/10/19 08:07:47;;;;;;;13.80;9.00;;;;;;;16.27;51.25;102804.44;6118909;23;20155;-67
2021/10/19 08:10:21;;;;;;;16.73;10.20;;;;;;;16.34;51.42;102799.53;6118963;23;20163;-67
2021/10/19 08:12:49;;;;;;;12.13;9.30;;;;;;;15.80;50.67;102696.38;6117231;23;20476;-65
2021/10/19 08:15:15;;;;;;;13.27;8.50;;;;;;;16.41;49.49;102798.69;6118860;23;20584;-65
2021/10/19 08:17:41;;;;;;;11.97;8.30;;;;;;;15.98;49.79;102708.13;6118061;23;20186;-65
2021/10/19 08:20:08;;;;;;;11.30;8.30;;;;;;;16.52;49.60;102801.38;6117203;23;20238;-65
2021/10/19 08:22:35;;;;;;;13.50;8.40;;;;;;;16.52;49.65;102792.97;6117926;23;20178;-65
2021/10/19 08:25:03;;;;;;;10.33;7.93;;;;;;;16.45;50.11;102807.84;6117504;23;20179;-67
2021/10/19 08:27:29;;;;;;;10.50;8.37;;;;;;;15.90;49.49;102693.44;6118262;23;20167;-65
2021/10/19 08:29:54;;;;;;;11.47;7.73;;;;;;;16.64;49.32;102796.75;6116983;23;20827;-67
2021/10/19 08:32:20;;;;;;;10.67;7.87;;;;;;;16.69;49.09;102768.28;6116406;23;20282;-65
2021/10/19 08:34:46;;;;;;;13.73;7.90;;;;;;;16.85;49.33;102774.03;6118046;23;20480;-64
2021/10/19 08:37:12;;;;;;;12.43;7.97;;;;;;;16.83;48.90;102756.06;6118494;23;20236;-67
2021/10/19 08:39:37;;;;;;;12.13;8.27;;;;;;;17.20;48.50;102793.06;6117554;23;20605;-64
2021/10/19 08:42:03;;;;;;;12.37;8.50;;;;;;;17.19;48.04;102790.69;6112405;23;20170;-65
2021/10/19 08:44:29;;;;;;;10.53;8.10;;;;;;;17.14;48.03;102752.75;6116576;23;20608;-65
2021/10/19 08:46:54;;;;;;;10.03;7.97;;;;;;;17.50;49.05;102794.19;6117416;23;20181;-63
2021/10/19 08:49:20;;;;;;;11.80;7.37;;;;;;;17.64;48.24;102794.72;6117543;23;20157;-65
2021/10/19 08:51:46;;;;;;;10.37;6.80;;;;;;;17.28;48.12;102741.31;6116003;23;20180;-65
2021/10/19 08:54:12;;;;;;;11.23;7.17;;;;;;;17.79;48.43;102790.44;6114493;23;20157;-66
2021/10/19 08:56:41;;;;;;;15.37;8.13;;;;;;;17.49;48.66;102742.94;6108564;23;20222;-65
2021/10/19 08:59:10;;;;;;;11.77;7.87;;;;;;;17.97;47.68;102799.28;6115505;23;20168;-65
2021/10/19 09:01:37;;;;;;;13.63;8.43;;;;;;;17.78;46.66;102809.25;6111862;23;20179;-65
2021/10/19 09:04:08;;;;;;;12.13;7.80;;;;;;;17.88;46.98;102796.28;6113066;23;20168;-64
2021/10/19 09:06:35;;;;;;;9.57;6.93;;;;;;;17.39;47.28;102707.50;6115866;23;20164;-64
2021/10/19 09:09:12;;;;;;;9.70;7.00;;;;;;;18.09;47.69;102798.66;6115380;23;20608;-66
2021/10/19 09:11:43;;;;;;;18.67;8.57;;;;;;;17.99;47.08;102799.66;6115691;23;20146;-65
2021/10/19 09:14:10;;;;;;;12.77;7.80;;;;;;;18.22;47.25;102799.56;6116736;23;20611;-65
2021/10/19 09:16:44;;;;;;;10.57;7.67;;;;;;;18.40;47.42;102808.44;6115978;23;20154;-61
2021/10/19 09:19:15;;;;;;;9.20;6.83;;;;;;;17.85;46.66;102734.63;6113614;23;20576;-64
2021/10/19 09:21:52;;;;;;;12.17;7.00;;;;;;;18.28;46.22;102803.47;6115457;23;20161;-64
2021/10/19 09:24:31;;;;;;;11.80;6.60;;;;;;;18.43;46.42;102810.34;6116930;23;20152;-65
2021/10/19 09:27:12;;;;;;;10.03;6.73;;;;;;;18.52;46.62;102807.00;6115596;23;20553;-64
2021/10/19 09:29:48;;;;;;;8.10;6.83;;;;;;;18.65;46.25;102807.88;6117373;23;20192;-64
2021/10/19 09:32:17;;;;;;;10.70;6.50;;;;;;;18.63;46.43;102808.31;6116662;23;20201;-64
2021/10/19 09:34:45;;;;;;;0.00;0.00;;;;;;;18.59;45.56;102810.44;6118294;23;20517;-64
2021/10/19 09:37:18;;;;;;;10.87;7.50;;;;;;;18.36;44.93;102804.91;6117733;23;20150;-64
2021/10/19 09:39:48;;;;;;;10.83;8.00;;;;;;;18.20;45.48;102802.03;6116508;23;20157;-64
2021/10/19 09:42:27;;;;;;;9.80;8.23;;;;;;;18.24;46.17;102805.56;6117288;23;20158;-64
2021/10/19 09:44:58;;;;;;;10.50;7.67;;;;;;;18.31;46.55;102802.56;6118043;23;20225;-65
2021/10/19 09:47:37;;;;;;;12.73;8.27;;;;;;;18.31;45.31;102801.81;6118065;23;20450;-63
2021/10/19 09:50:05;;;;;;;11.23;7.83;;;;;;;18.03;45.75;102803.97;6117110;23;20138;-64
2021/10/19 09:52:36;;;;;;;10.83;7.97;;;;;;;18.06;46.19;102760.22;6117042;23;20180;-64
2021/10/19 09:55:05;;;;;;;12.10;8.40;;;;;;;18.22;45.85;102801.59;6113398;23;20519;-64
2021/10/19 09:57:31;;;;;;;11.53;8.97;;;;;;;18.13;45.65;102796.56;6117112;23;20514;-64
2021/10/19 09:59:58;;;;;;;12.00;8.83;;;;;;;18.47;45.68;102785.03;6114629;23;20159;-64
2021/10/19 10:02:25;;;;;;;14.17;9.13;;;;;;;18.69;45.36;102788.94;6115050;23;20521;-65
2021/10/19 10:04:52;;;;;;;11.73;8.40;;;;;;;18.81;45.62;102802.28;6116929;23;20154;-64
2021/10/19 10:07:21;;;;;;;13.97;8.43;;;;;;;18.75;44.54;102796.41;6117351;23;20158;-64
2021/10/19 10:09:48;;;;;;;10.30;8.10;;;;;;;18.53;45.08;102758.78;6117705;23;20567;-65
2021/10/19 10:12:13;;;;;;;9.23;8.00;;;;;;;18.38;45.04;102748.34;6116213;23;20617;-65
2021/10/19 10:14:47;;;;;;;12.47;8.00;;;;;;;18.53;45.60;102777.69;6115206;23;20178;-66
2021/10/19 10:17:13;;;;;;;6.30;5.17;;;;;;;18.49;46.41;102776.97;6115729;23;20201;-66
2021/10/19 10:19:40;;;;;;;12.07;7.47;;;;;;;18.41;46.21;102764.28;6116455;23;20158;-65
2021/10/19 10:22:17;;;;;;;11.83;7.53;;;;;;;18.46;46.08;102770.19;6116909;23;20515;-66
2021/10/19 10:24:43;;;;;;;15.33;8.10;;;;;;;18.34;45.94;102767.28;6107830;23;20233;-66
2021/10/19 10:27:24;;;;;;;11.63;7.70;;;;;;;18.46;46.00;102760.97;6113630;23;20215;-67
2021/10/19 10:29:50;;;;;;;13.13;7.47;;;;;;;18.45;46.16;102734.94;6118495;23;20166;-65
2021/10/19 10:32:37;;;;;;;12.17;7.87;;;;;;;18.84;46.04;102764.91;6119127;23;20284;-68
2021/10/19 10:35:15;;;;;;;12.53;8.10;;;;;;;18.82;45.50;102736.44;6117552;23;20544;-65
2021/10/19 10:38:02;;;;;;;10.93;8.40;;;;;;;19.11;45.38;102757.00;6115947;23;20216;-67
2021/10/19 10:40:28;;;;;;;10.47;7.93;;;;;;;19.13;44.16;102755.31;6114395;23;20154;-67
2021/10/19 10:42:55;;;;;;;10.60;8.07;;;;;;;19.05;44.15;102755.94;6119845;23;20173;-65
2021/10/19 10:45:28;;;;;;;12.67;8.40;;;;;;;18.65;44.47;102749.69;6113767;23;20456;-65
2021/10/19 10:47:57;;;;;;;17.57;8.73;;;;;;;18.58;45.76;102754.69;6114141;23;20205;-65
2021/10/19 10:50:23;;;;;;;13.13;8.90;;;;;;;18.17;45.68;102697.03;6111845;23;20233;-65
2021/10/19 10:52:59;;;;;;;12.23;8.10;;;;;;;18.57;46.32;102731.44;6116688;23;20185;-65
2021/10/19 10:55:25;;;;;;;10.87;9.20;;;;;;;18.74;45.76;102744.28;6119120;23;20213;-64
2021/10/19 10:57:51;;;;;;;15.30;9.37;;;;;;;18.69;46.16;102747.59;6119880;23;20157;-65
2021/10/19 11:00:22;;;;;;;12.37;8.93;;;;;;;18.79;45.66;102734.53;6117911;23;20158;-65
2021/10/19 11:02:47;;;;;;;11.13;8.73;;;;;;;18.82;46.53;102706.34;6119860;23;20146;-65
2021/10/19 11:05:15;;;;;;;14.83;9.30;;;;;;;18.92;46.17;102739.00;6119154;23;20154;-65
2021/10/19 11:07:42;;;;;;;14.50;9.57;;;;;;;18.82;46.32;102733.63;6119518;23;20162;-64
2021/10/19 11:10:16;;;;;;;13.47;8.97;;;;;;;18.50;45.69;102683.88;6118561;23;20160;-65
2021/10/19 11:12:44;;;;;;;12.77;8.97;;;;;;;18.98;47.21;102739.28;6119155;23;20159;-64
2021/10/19 11:15:15;;;;;;;14.03;10.00;;;;;;;18.82;45.31;102740.03;6116801;23;20194;-65
2021/10/19 11:17:48;;;;;;;13.30;9.37;;;;;;;18.59;45.28;102737.41;6112286;23;20162;-65